Partoun, Utah
Current Conditions -  °F | °C
As of 2:55 AM on Saturday 29 Nov 2014 (Local Time) from KENV Reporting Station
Clear Clear  
Wind Chill: 37°   Ceiling: Unl
Heat Index: 37°   Visibility: 10mi
Dew Point: 18°   Wind: 3mph
Humidity: 45%   Direction: 270°W
Pressure: 29.72"   Gusts: NA
Location:  40.2503°N, 113.457°W
Report Text: KENV 290955Z AUTO 27003KT 10SM CLR 03/M08 A2972 RMK AO1
Loading
Personal Weather Stations






























Interactive Weather Map New forecast layout! Learn more

10-Day Weather Forecast

Advertisements
Track Severe Weather on mobile